Front Races Teams Riders Ranking Agency Fantasy

Sylvain Moniquet

Lotto Soudal

| Highlights | Statistics | Teams
Nationality Belgium
BornJan 14th 1998 (23)
UCI Ranking 1020
Agency 10SPEED HR

2020

Team: Groupama-FDJ Conti | Division: Continental| UCI Ranking: 1028 | 24 pts
UCI Wins: - | Race days: 20 | Distance: 2.345 km
Date Pos GC Race CAT UCI
2020-10-04 04.10 4 Piccolo Giro di Lombardia 1.2U15
2020-09-20 20.09 7 Ronde de l'Isard (U23) 2.2U3
2020-09-20 20.09 9 Ronde de l'Isard (U23) | Points 2.2U-
2020-09-20 20.09 13 - Ronde de l'Isard (U23) | Mountain 2.2U-
2020-09-05 05.09 53 Giro Ciclistico D'Italia 2.2U-
2020-09-05 05.09 48 Giro Ciclistico D'Italia | Points 2.2U-
2020-09-05 05.09 27 - Giro Ciclistico D'Italia | Mountain 2.2U-
2020-08-08 08.08 8 T.d.Savoie Mont Blanc 2.23
2020-08-08 08.08 3 T.d.Savoie Mont Blanc | Youth 2.2-
2020-08-08 08.08 16 T.d.Savoie Mont Blanc | Points 2.2-
2020-08-08 08.08 21 - T.d.Savoie Mont Blanc | Mountain 2.2-
2020-07-18 18.07 12 Virtual Tour de France - Race 5 eRace-
2020-03-08 08.03 70 Porec Trophy 1.2-
2020-09-27 27.09 5 Arden Challenge | Stage 03 2.12-
2020-09-25 25.09 3 Arden Challenge | Stage 01 2.12-
2020-09-20 20.09 21 7 Ronde de l'Isard (U23) | Stage 05 2.2U-
2020-09-19 19.09 5 1 Ronde de l'Isard (U23) | Stage 04 2.2U-
2020-09-18 18.09 3 1 Ronde de l'Isard (U23) | Stage 03 (TTT) 2.2U-
2020-09-18 18.09 5 1 Ronde de l'Isard (U23) | Stage 02 2.2U-
2020-09-17 17.09 17 18 Ronde de l'Isard (U23) | Stage 01 2.2U-
2020-09-05 05.09 14 53 Giro Ciclistico D'Italia | Stage 08 2.2U-
2020-09-04 04.09 9 89 Giro Ciclistico D'Italia | Stage 07 2.2U-
2020-09-03 03.09 130 117 Giro Ciclistico D'Italia | Stage 06 2.2U-
2020-09-02 02.09 109 104 Giro Ciclistico D'Italia | Stage 05 2.2U-
2020-09-01 01.09 124 112 Giro Ciclistico D'Italia | Stage 04 2.2U-
2020-08-31 31.08 148 112 Giro Ciclistico D'Italia | Stage 03 2.2U-
2020-08-30 30.08 122 64 Giro Ciclistico D'Italia | Stage 02 2.2U-
2020-08-29 29.08 59 59 Giro Ciclistico D'Italia | Stage 01 2.2U-
2020-08-08 08.08 15 8 T.d.Savoie Mont Blanc | Stage 05 2.2-
2020-08-07 07.08 5 5 T.d.Savoie Mont Blanc | Stage 04 2.2-
2020-08-06 06.08 16 13 T.d.Savoie Mont Blanc | Stage 03 2.2-
2020-08-06 06.08 10 15 T.d.Savoie Mont Blanc | Stage 02 2.2-
2020-08-05 05.08 27 27 T.d.Savoie Mont Blanc | Stage 01 2.2-